sensor_id;sensor_type;location;lat;lon;timestamp;pressure;altitude;pressure_sealevel;temperature;humidity
58092;BME280;43896;48.178;11.578;2022-12-29T00:01:25;95694.31;;;6.92;49.73
58092;BME280;43896;48.178;11.578;2022-12-29T00:03:50;95679.06;;;6.88;49.79
58092;BME280;43896;48.178;11.578;2022-12-29T00:06:16;95677.25;;;6.79;50.41
58092;BME280;43896;48.178;11.578;2022-12-29T00:08:41;95646.47;;;6.72;49.85
58092;BME280;43896;48.178;11.578;2022-12-29T00:11:15;95658.56;;;6.83;50.03
58092;BME280;43896;48.178;11.578;2022-12-29T00:13:41;95680.81;;;7.07;49.39
58092;BME280;43896;48.178;11.578;2022-12-29T00:16:26;95672.97;;;7.07;49.13
58092;BME280;43896;48.178;11.578;2022-12-29T00:18:52;95663.78;;;6.93;49.76
58092;BME280;43896;48.178;11.578;2022-12-29T00:21:19;95654.81;;;6.86;50.10
58092;BME280;43896;48.178;11.578;2022-12-29T00:24:04;95648.38;;;6.90;49.32
58092;BME280;43896;48.178;11.578;2022-12-29T00:26:54;95672.41;;;7.13;49.47
58092;BME280;43896;48.178;11.578;2022-12-29T00:29:38;95633.91;;;6.86;49.04
58092;BME280;43896;48.178;11.578;2022-12-29T00:32:22;95656.84;;;7.11;49.12
58092;BME280;43896;48.178;11.578;2022-12-29T00:35:09;95666.88;;;7.26;48.44
58092;BME280;43896;48.178;11.578;2022-12-29T00:37:41;95650.38;;;7.16;48.44
58092;BME280;43896;48.178;11.578;2022-12-29T00:40:26;95628.25;;;7.00;48.57
58092;BME280;43896;48.178;11.578;2022-12-29T00:43:09;95655.75;;;7.14;47.42
58092;BME280;43896;48.178;11.578;2022-12-29T00:45:53;95661.66;;;7.06;48.38
58092;BME280;43896;48.178;11.578;2022-12-29T00:48:19;95656.56;;;7.14;48.20
58092;BME280;43896;48.178;11.578;2022-12-29T00:51:04;95670.59;;;7.23;48.02
58092;BME280;43896;48.178;11.578;2022-12-29T00:53:30;95655.91;;;7.03;48.52
58092;BME280;43896;48.178;11.578;2022-12-29T00:55:55;95657.56;;;7.13;48.40
58092;BME280;43896;48.178;11.578;2022-12-29T00:58:20;95659.31;;;7.13;47.93
58092;BME280;43896;48.178;11.578;2022-12-29T01:00:46;95642.72;;;6.94;48.30
58092;BME280;43896;48.178;11.578;2022-12-29T01:03:11;95650.13;;;6.99;47.79
58092;BME280;43896;48.178;11.578;2022-12-29T01:05:36;95645.34;;;6.94;48.07
58092;BME280;43896;48.178;11.578;2022-12-29T01:08:02;95652.22;;;6.95;48.41
58092;BME280;43896;48.178;11.578;2022-12-29T01:10:27;95671.19;;;6.98;48.85
58092;BME280;43896;48.178;11.578;2022-12-29T01:12:53;95679.84;;;7.08;47.83
58092;BME280;43896;48.178;11.578;2022-12-29T01:15:18;95661.56;;;6.98;48.11
58092;BME280;43896;48.178;11.578;2022-12-29T01:17:44;95683.41;;;7.17;48.26
58092;BME280;43896;48.178;11.578;2022-12-29T01:20:10;95680.66;;;7.18;48.21
58092;BME280;43896;48.178;11.578;2022-12-29T01:22:36;95609.84;;;6.82;47.84
58092;BME280;43896;48.178;11.578;2022-12-29T01:25:01;95611.50;;;6.93;47.58
58092;BME280;43896;48.178;11.578;2022-12-29T01:27:27;95679.56;;;7.21;47.85
58092;BME280;43896;48.178;11.578;2022-12-29T01:29:52;95675.56;;;7.17;48.52
58092;BME280;43896;48.178;11.578;2022-12-29T01:32:17;95662.13;;;6.92;48.88
58092;BME280;43896;48.178;11.578;2022-12-29T01:34:42;95678.06;;;7.08;48.01
58092;BME280;43896;48.178;11.578;2022-12-29T01:37:08;95669.97;;;7.02;48.20
58092;BME280;43896;48.178;11.578;2022-12-29T01:39:33;95637.63;;;6.93;48.15
58092;BME280;43896;48.178;11.578;2022-12-29T01:41:58;95659.47;;;7.11;47.44
58092;BME280;43896;48.178;11.578;2022-12-29T01:44:50;95670.59;;;7.23;47.20
58092;BME280;43896;48.178;11.578;2022-12-29T01:47:22;95635.44;;;6.98;47.66
58092;BME280;43896;48.178;11.578;2022-12-29T01:49:53;95674.31;;;7.21;47.37
58092;BME280;43896;48.178;11.578;2022-12-29T01:52:19;95649.84;;;7.02;47.70
58092;BME280;43896;48.178;11.578;2022-12-29T01:54:49;95674.03;;;7.24;47.35
58092;BME280;43896;48.178;11.578;2022-12-29T01:57:20;95664.59;;;7.03;48.41
58092;BME280;43896;48.178;11.578;2022-12-29T01:59:53;95671.59;;;7.03;48.07
58092;BME280;43896;48.178;11.578;2022-12-29T02:02:20;95645.47;;;6.93;47.63
58092;BME280;43896;48.178;11.578;2022-12-29T02:04:46;95663.88;;;7.11;48.04
58092;BME280;43896;48.178;11.578;2022-12-29T02:07:17;95640.34;;;7.01;47.11
58092;BME280;43896;48.178;11.578;2022-12-29T02:09:43;95620.97;;;6.94;47.52
58092;BME280;43896;48.178;11.578;2022-12-29T02:12:12;95651.88;;;7.18;47.41
58092;BME280;43896;48.178;11.578;2022-12-29T02:14:37;95647.56;;;7.37;46.55
58092;BME280;43896;48.178;11.578;2022-12-29T02:17:28;95623.38;;;7.15;46.52
58092;BME280;43896;48.178;11.578;2022-12-29T02:31:00;95662.06;;;7.21;46.86
58092;BME280;43896;48.178;11.578;2022-12-29T02:33:46;95657.94;;;7.19;46.24
58092;BME280;43896;48.178;11.578;2022-12-29T02:36:39;95667.16;;;7.13;47.13
58092;BME280;43896;48.178;11.578;2022-12-29T02:42:09;95654.06;;;7.23;46.99
58092;BME280;43896;48.178;11.578;2022-12-29T02:47:23;95633.72;;;7.17;46.91
58092;BME280;43896;48.178;11.578;2022-12-29T02:50:01;95644.66;;;7.40;46.19
58092;BME280;43896;48.178;11.578;2022-12-29T02:52:40;95649.38;;;7.36;46.20
58092;BME280;43896;48.178;11.578;2022-12-29T02:55:10;95641.13;;;7.31;46.30
58092;BME280;43896;48.178;11.578;2022-12-29T02:57:36;95638.25;;;7.14;46.17
58092;BME280;43896;48.178;11.578;2022-12-29T03:00:14;95639.38;;;7.12;46.82
58092;BME280;43896;48.178;11.578;2022-12-29T03:03:08;95640.19;;;7.12;47.17
58092;BME280;43896;48.178;11.578;2022-12-29T03:13:36;95628.31;;;7.28;45.70
58092;BME280;43896;48.178;11.578;2022-12-29T03:16:30;95624.34;;;7.24;46.10
58092;BME280;43896;48.178;11.578;2022-12-29T03:24:20;95596.13;;;7.27;45.94
58092;BME280;43896;48.178;11.578;2022-12-29T03:26:48;95596.66;;;7.31;45.10
58092;BME280;43896;48.178;11.578;2022-12-29T03:29:16;95580.03;;;7.22;45.54
58092;BME280;43896;48.178;11.578;2022-12-29T03:31:44;95605.22;;;7.51;44.71
58092;BME280;43896;48.178;11.578;2022-12-29T03:34:11;95592.28;;;7.49;44.55
58092;BME280;43896;48.178;11.578;2022-12-29T03:36:57;95611.09;;;7.63;44.75
58092;BME280;43896;48.178;11.578;2022-12-29T03:39:24;95601.00;;;7.68;43.98
58092;BME280;43896;48.178;11.578;2022-12-29T03:42:04;95603.19;;;7.73;44.06
58092;BME280;43896;48.178;11.578;2022-12-29T03:44:40;95576.41;;;7.61;44.15
58092;BME280;43896;48.178;11.578;2022-12-29T03:47:06;95603.44;;;7.79;43.85
58092;BME280;43896;48.178;11.578;2022-12-29T03:49:33;95599.69;;;7.82;44.36
58092;BME280;43896;48.178;11.578;2022-12-29T03:51:58;95605.16;;;7.88;43.54
58092;BME280;43896;48.178;11.578;2022-12-29T03:54:24;95593.34;;;7.84;42.95
58092;BME280;43896;48.178;11.578;2022-12-29T03:56:49;95607.69;;;7.53;44.30
58092;BME280;43896;48.178;11.578;2022-12-29T03:59:15;95595.34;;;7.73;43.76
58092;BME280;43896;48.178;11.578;2022-12-29T04:01:40;95590.69;;;7.66;43.66
58092;BME280;43896;48.178;11.578;2022-12-29T04:04:05;95596.41;;;7.80;43.37
58092;BME280;43896;48.178;11.578;2022-12-29T04:06:31;95596.63;;;7.86;43.30
58092;BME280;43896;48.178;11.578;2022-12-29T04:08:56;95580.84;;;7.78;42.44
58092;BME280;43896;48.178;11.578;2022-12-29T04:11:21;95598.72;;;7.83;42.61
58092;BME280;43896;48.178;11.578;2022-12-29T04:13:47;95592.72;;;7.73;42.84
58092;BME280;43896;48.178;11.578;2022-12-29T04:16:12;95594.06;;;7.77;42.90
58092;BME280;43896;48.178;11.578;2022-12-29T04:18:37;95610.06;;;8.01;43.02
58092;BME280;43896;48.178;11.578;2022-12-29T04:21:03;95601.78;;;7.78;43.17
58092;BME280;43896;48.178;11.578;2022-12-29T04:23:30;95614.69;;;7.89;42.95
58092;BME280;43896;48.178;11.578;2022-12-29T04:25:56;95559.03;;;7.60;43.21
58092;BME280;43896;48.178;11.578;2022-12-29T04:28:21;95615.44;;;8.00;43.12
58092;BME280;43896;48.178;11.578;2022-12-29T04:30:47;95593.22;;;8.04;42.19
58092;BME280;43896;48.178;11.578;2022-12-29T04:33:12;95594.03;;;8.04;42.60
58092;BME280;43896;48.178;11.578;2022-12-29T04:35:38;95585.44;;;8.12;42.75
58092;BME280;43896;48.178;11.578;2022-12-29T04:38:03;95584.31;;;7.97;43.12
58092;BME280;43896;48.178;11.578;2022-12-29T04:40:28;95567.69;;;7.88;43.29
58092;BME280;43896;48.178;11.578;2022-12-29T04:42:54;95578.13;;;7.98;42.94
58092;BME280;43896;48.178;11.578;2022-12-29T04:45:19;95597.88;;;8.10;43.00
58092;BME280;43896;48.178;11.578;2022-12-29T04:47:44;95591.72;;;8.19;42.53
58092;BME280;43896;48.178;11.578;2022-12-29T04:50:10;95589.50;;;8.24;42.28
58092;BME280;43896;48.178;11.578;2022-12-29T04:52:36;95555.13;;;7.92;42.58
58092;BME280;43896;48.178;11.578;2022-12-29T04:55:01;95565.47;;;8.11;41.95
58092;BME280;43896;48.178;11.578;2022-12-29T04:57:27;95598.34;;;8.23;42.20
58092;BME280;43896;48.178;11.578;2022-12-29T04:59:52;95588.38;;;8.27;42.12
58092;BME280;43896;48.178;11.578;2022-12-29T05:02:18;95583.13;;;8.27;42.45
58092;BME280;43896;48.178;11.578;2022-12-29T05:04:43;95585.81;;;8.35;42.05
58092;BME280;43896;48.178;11.578;2022-12-29T05:07:08;95584.88;;;8.18;42.18
58092;BME280;43896;48.178;11.578;2022-12-29T05:09:33;95580.72;;;8.16;42.37
58092;BME280;43896;48.178;11.578;2022-12-29T05:11:59;95589.94;;;8.20;41.92
58092;BME280;43896;48.178;11.578;2022-12-29T05:14:24;95582.28;;;8.26;42.34
58092;BME280;43896;48.178;11.578;2022-12-29T05:16:49;95601.16;;;8.30;42.30
58092;BME280;43896;48.178;11.578;2022-12-29T05:19:15;95586.88;;;8.06;42.55
58092;BME280;43896;48.178;11.578;2022-12-29T05:21:41;95573.03;;;8.14;42.72
58092;BME280;43896;48.178;11.578;2022-12-29T05:24:07;95590.78;;;8.20;42.02
58092;BME280;43896;48.178;11.578;2022-12-29T05:26:32;95596.91;;;8.29;41.66
58092;BME280;43896;48.178;11.578;2022-12-29T05:28:57;95578.34;;;8.22;42.44
58092;BME280;43896;48.178;11.578;2022-12-29T05:31:23;95607.88;;;8.42;41.58
58092;BME280;43896;48.178;11.578;2022-12-29T05:33:48;95582.69;;;8.14;41.69
58092;BME280;43896;48.178;11.578;2022-12-29T05:36:14;95588.59;;;8.16;42.61
58092;BME280;43896;48.178;11.578;2022-12-29T05:38:39;95588.22;;;8.29;42.12
58092;BME280;43896;48.178;11.578;2022-12-29T05:41:04;95598.47;;;8.22;41.68
58092;BME280;43896;48.178;11.578;2022-12-29T05:43:30;95574.97;;;8.12;42.86
58092;BME280;43896;48.178;11.578;2022-12-29T05:45:56;95574.53;;;8.17;43.06
58092;BME280;43896;48.178;11.578;2022-12-29T05:48:21;95570.47;;;8.22;42.87
58092;BME280;43896;48.178;11.578;2022-12-29T05:50:48;95560.53;;;8.26;41.76
58092;BME280;43896;48.178;11.578;2022-12-29T05:53:13;95591.56;;;8.39;41.91
58092;BME280;43896;48.178;11.578;2022-12-29T05:55:38;95574.50;;;8.35;41.59
58092;BME280;43896;48.178;11.578;2022-12-29T05:58:04;95572.19;;;8.32;41.77
58092;BME280;43896;48.178;11.578;2022-12-29T06:00:29;95611.44;;;8.59;42.55
58092;BME280;43896;48.178;11.578;2022-12-29T06:02:54;95576.63;;;8.49;41.64
58092;BME280;43896;48.178;11.578;2022-12-29T06:05:19;95593.09;;;8.59;41.79
58092;BME280;43896;48.178;11.578;2022-12-29T06:07:45;95599.97;;;8.60;41.76
58092;BME280;43896;48.178;11.578;2022-12-29T06:10:11;95599.16;;;8.60;42.62
58092;BME280;43896;48.178;11.578;2022-12-29T06:12:36;95583.38;;;8.52;42.08
58092;BME280;43896;48.178;11.578;2022-12-29T06:15:01;95600.13;;;8.59;41.82
58092;BME280;43896;48.178;11.578;2022-12-29T06:17:27;95596.25;;;8.45;42.21
58092;BME280;43896;48.178;11.578;2022-12-29T06:19:52;95575.72;;;8.22;42.74
58092;BME280;43896;48.178;11.578;2022-12-29T06:22:17;95589.88;;;8.30;42.30
58092;BME280;43896;48.178;11.578;2022-12-29T06:24:42;95601.00;;;8.32;42.73
58092;BME280;43896;48.178;11.578;2022-12-29T06:27:08;95572.19;;;8.14;42.83
58092;BME280;43896;48.178;11.578;2022-12-29T06:29:33;95578.41;;;8.31;42.68
58092;BME280;43896;48.178;11.578;2022-12-29T06:32:00;95555.97;;;8.10;42.44
58092;BME280;43896;48.178;11.578;2022-12-29T06:34:25;95606.19;;;8.41;42.46
58092;BME280;43896;48.178;11.578;2022-12-29T06:36:51;95572.34;;;8.30;42.26
58092;BME280;43896;48.178;11.578;2022-12-29T06:39:16;95600.28;;;8.39;42.73
58092;BME280;43896;48.178;11.578;2022-12-29T06:41:41;95578.94;;;8.34;42.38
58092;BME280;43896;48.178;11.578;2022-12-29T06:44:07;95580.72;;;8.16;43.17
58092;BME280;43896;48.178;11.578;2022-12-29T06:46:32;95584.53;;;8.21;43.07
58092;BME280;43896;48.178;11.578;2022-12-29T06:48:57;95567.69;;;8.06;43.72
58092;BME280;43896;48.178;11.578;2022-12-29T06:51:23;95585.81;;;8.17;43.71
58092;BME280;43896;48.178;11.578;2022-12-29T06:53:48;95562.84;;;8.11;43.12
58092;BME280;43896;48.178;11.578;2022-12-29T06:56:13;95587.69;;;8.07;44.13
58092;BME280;43896;48.178;11.578;2022-12-29T06:58:39;95580.59;;;8.17;43.27
58092;BME280;43896;48.178;11.578;2022-12-29T07:01:04;95562.91;;;8.19;42.27
58092;BME280;43896;48.178;11.578;2022-12-29T07:03:30;95578.09;;;8.34;43.19
58092;BME280;43896;48.178;11.578;2022-12-29T07:05:55;95579.16;;;8.23;43.18
58092;BME280;43896;48.178;11.578;2022-12-29T07:08:22;95581.78;;;8.23;42.69
58092;BME280;43896;48.178;11.578;2022-12-29T07:10:47;95588.06;;;8.12;43.19
58092;BME280;43896;48.178;11.578;2022-12-29T07:13:13;95596.13;;;8.01;43.70
58092;BME280;43896;48.178;11.578;2022-12-29T07:15:38;95601.59;;;8.07;43.73
58092;BME280;43896;48.178;11.578;2022-12-29T07:18:04;95627.22;;;8.32;42.95
58092;BME280;43896;48.178;11.578;2022-12-29T07:20:30;95618.38;;;8.15;42.96
58092;BME280;43896;48.178;11.578;2022-12-29T07:22:55;95603.56;;;8.23;42.21
58092;BME280;43896;48.178;11.578;2022-12-29T07:25:21;95615.78;;;8.33;42.65
58092;BME280;43896;48.178;11.578;2022-12-29T07:27:46;95626.34;;;8.41;42.77
58092;BME280;43896;48.178;11.578;2022-12-29T07:30:12;95569.72;;;8.12;43.03
58092;BME280;43896;48.178;11.578;2022-12-29T07:32:37;95628.75;;;8.52;43.08
58092;BME280;43896;48.178;11.578;2022-12-29T07:35:03;95530.53;;;7.84;42.50
58092;BME280;43896;48.178;11.578;2022-12-29T07:37:28;95643.34;;;8.55;43.21
58092;BME280;43896;48.178;11.578;2022-12-29T07:39:54;95588.16;;;8.20;42.83
58092;BME280;43896;48.178;11.578;2022-12-29T07:42:19;95640.31;;;8.32;43.70
58092;BME280;43896;48.178;11.578;2022-12-29T07:44:44;95644.63;;;8.51;43.31
58092;BME280;43896;48.178;11.578;2022-12-29T07:47:10;95620.38;;;8.39;43.87
58092;BME280;43896;48.178;11.578;2022-12-29T07:49:35;95625.00;;;8.55;43.02
58092;BME280;43896;48.178;11.578;2022-12-29T07:52:00;95626.56;;;8.66;42.62
58092;BME280;43896;48.178;11.578;2022-12-29T07:54:26;95642.38;;;8.74;43.09
58092;BME280;43896;48.178;11.578;2022-12-29T07:56:51;95649.31;;;8.83;43.09
58092;BME280;43896;48.178;11.578;2022-12-29T07:59:16;95638.16;;;8.81;42.29
58092;BME280;43896;48.178;11.578;2022-12-29T08:01:42;95642.06;;;8.77;42.31
58092;BME280;43896;48.178;11.578;2022-12-29T08:04:07;95654.03;;;8.97;42.36
58092;BME280;43896;48.178;11.578;2022-12-29T08:06:32;95641.06;;;8.96;42.63
58092;BME280;43896;48.178;11.578;2022-12-29T08:08:58;95648.16;;;9.04;42.69
58092;BME280;43896;48.178;11.578;2022-12-29T08:11:25;95650.78;;;9.04;42.21
58092;BME280;43896;48.178;11.578;2022-12-29T08:13:50;95617.56;;;8.86;41.84
58092;BME280;43896;48.178;11.578;2022-12-29T08:16:15;95618.63;;;9.01;41.91
58092;BME280;43896;48.178;11.578;2022-12-29T08:18:41;95617.91;;;10.54;38.65
58092;BME280;43896;48.178;11.578;2022-12-29T08:21:06;95636.50;;;11.18;37.04
58092;BME280;43896;48.178;11.578;2022-12-29T08:23:32;95633.53;;;11.21;36.71
58092;BME280;43896;48.178;11.578;2022-12-29T08:26:04;95634.19;;;10.65;37.88
58092;BME280;43896;48.178;11.578;2022-12-29T08:28:31;95613.31;;;10.47;37.25
58092;BME280;43896;48.178;11.578;2022-12-29T08:30:58;95635.03;;;10.66;37.94
58092;BME280;43896;48.178;11.578;2022-12-29T08:33:23;95633.06;;;10.68;37.78
58092;BME280;43896;48.178;11.578;2022-12-29T08:35:49;95604.59;;;10.88;36.68
58092;BME280;43896;48.178;11.578;2022-12-29T08:38:14;95629.94;;;11.05;36.68
58092;BME280;43896;48.178;11.578;2022-12-29T08:40:40;95616.75;;;11.78;35.53
58092;BME280;43896;48.178;11.578;2022-12-29T08:43:05;95622.53;;;12.44;34.39
58092;BME280;43896;48.178;11.578;2022-12-29T08:45:31;95631.03;;;12.78;33.83
58092;BME280;43896;48.178;11.578;2022-12-29T08:47:56;95624.72;;;12.32;33.98
58092;BME280;43896;48.178;11.578;2022-12-29T08:50:22;95635.69;;;11.81;35.31
58092;BME280;43896;48.178;11.578;2022-12-29T08:52:47;95645.47;;;11.48;35.75
58092;BME280;43896;48.178;11.578;2022-12-29T08:55:12;95625.00;;;10.78;37.09
58092;BME280;43896;48.178;11.578;2022-12-29T08:57:38;95622.22;;;10.55;37.31
58092;BME280;43896;48.178;11.578;2022-12-29T09:00:04;95624.00;;;10.70;37.07
58092;BME280;43896;48.178;11.578;2022-12-29T09:02:29;95577.19;;;10.66;36.24
58092;BME280;43896;48.178;11.578;2022-12-29T09:04:55;95629.50;;;11.50;35.76
58092;BME280;43896;48.178;11.578;2022-12-29T09:07:22;95642.63;;;11.74;35.21
58092;BME280;43896;48.178;11.578;2022-12-29T09:09:47;95655.88;;;13.06;32.98
58092;BME280;43896;48.178;11.578;2022-12-29T09:12:13;95661.44;;;14.09;30.98
58092;BME280;43896;48.178;11.578;2022-12-29T09:14:38;95650.16;;;13.56;31.27
58092;BME280;43896;48.178;11.578;2022-12-29T09:17:04;95630.59;;;12.89;32.71
58092;BME280;43896;48.178;11.578;2022-12-29T09:19:47;95663.31;;;13.26;32.11
58092;BME280;43896;48.178;11.578;2022-12-29T09:22:13;95629.47;;;14.40;29.83
58092;BME280;43896;48.178;11.578;2022-12-29T09:24:38;95647.56;;;15.80;27.91
58092;BME280;43896;48.178;11.578;2022-12-29T09:27:03;95651.75;;;14.31;29.33
58092;BME280;43896;48.178;11.578;2022-12-29T09:29:28;95632.25;;;14.54;29.42
58092;BME280;43896;48.178;11.578;2022-12-29T09:31:54;95635.72;;;14.54;29.08
58092;BME280;43896;48.178;11.578;2022-12-29T09:34:19;95646.88;;;14.50;29.38
58092;BME280;43896;48.178;11.578;2022-12-29T09:36:44;95615.97;;;16.26;27.15
58092;BME280;43896;48.178;11.578;2022-12-29T09:39:10;95647.16;;;18.90;23.65
58092;BME280;43896;48.178;11.578;2022-12-29T09:46:57;95662.22;;;13.58;30.14
58092;BME280;43896;48.178;11.578;2022-12-29T09:49:46;95650.50;;;12.76;31.91
58092;BME280;43896;48.178;11.578;2022-12-29T09:52:25;95648.72;;;12.46;32.28
58092;BME280;43896;48.178;11.578;2022-12-29T09:57:36;95637.22;;;11.59;33.36
58092;BME280;43896;48.178;11.578;2022-12-29T10:00:10;95645.94;;;11.60;34.12
58092;BME280;43896;48.178;11.578;2022-12-29T10:02:50;95616.09;;;11.20;34.51
58092;BME280;43896;48.178;11.578;2022-12-29T10:05:24;95639.94;;;11.35;34.47
58092;BME280;43896;48.178;11.578;2022-12-29T10:10:37;95629.75;;;11.15;34.89
58092;BME280;43896;48.178;11.578;2022-12-29T10:13:36;95628.28;;;11.13;35.46
58092;BME280;43896;48.178;11.578;2022-12-29T10:16:15;95637.31;;;11.02;36.08
58092;BME280;43896;48.178;11.578;2022-12-29T10:18:53;95631.56;;;11.15;35.49
58092;BME280;43896;48.178;11.578;2022-12-29T10:22:12;95616.78;;;10.97;34.82
58092;BME280;43896;48.178;11.578;2022-12-29T10:24:44;95563.19;;;10.74;35.36
58092;BME280;43896;48.178;11.578;2022-12-29T10:27:13;95578.50;;;10.86;35.22
58092;BME280;43896;48.178;11.578;2022-12-29T10:29:55;95592.09;;;11.06;34.95
58092;BME280;43896;48.178;11.578;2022-12-29T10:32:27;95586.19;;;11.04;35.31
58092;BME280;43896;48.178;11.578;2022-12-29T10:34:59;95559.22;;;10.94;34.48
58092;BME280;43896;48.178;11.578;2022-12-29T10:37:38;95597.16;;;11.24;34.56
58092;BME280;43896;48.178;11.578;2022-12-29T10:40:28;95632.91;;;11.67;33.92
58092;BME280;43896;48.178;11.578;2022-12-29T10:42:57;95543.81;;;11.31;33.46
58092;BME280;43896;48.178;11.578;2022-12-29T10:45:28;95562.28;;;11.70;32.91
58092;BME280;43896;48.178;11.578;2022-12-29T10:47:59;95622.69;;;12.19;33.11
58092;BME280;43896;48.178;11.578;2022-12-29T10:50:27;95614.41;;;11.91;34.08
58092;BME280;43896;48.178;11.578;2022-12-29T10:52:56;95532.78;;;11.75;33.40
58092;BME280;43896;48.178;11.578;2022-12-29T10:55:32;95605.16;;;12.27;33.11
58092;BME280;43896;48.178;11.578;2022-12-29T10:58:04;95618.91;;;12.45;32.84
58092;BME280;43896;48.178;11.578;2022-12-29T11:00:30;95572.75;;;12.64;32.58
58092;BME280;43896;48.178;11.578;2022-12-29T11:08:51;95581.19;;;12.83;31.92
58092;BME280;43896;48.178;11.578;2022-12-29T11:11:24;95586.75;;;13.03;31.34
58092;BME280;43896;48.178;11.578;2022-12-29T11:13:56;95595.75;;;14.49;30.24
58092;BME280;43896;48.178;11.578;2022-12-29T11:16:33;95589.72;;;16.58;26.71
58092;BME280;43896;48.178;11.578;2022-12-29T11:19:00;95562.06;;;16.12;26.58
58092;BME280;43896;48.178;11.578;2022-12-29T11:21:37;95579.50;;;16.62;26.45
58092;BME280;43896;48.178;11.578;2022-12-29T11:24:18;95516.75;;;16.27;26.04
58092;BME280;43896;48.178;11.578;2022-12-29T11:26:45;95532.81;;;15.92;27.30
58092;BME280;43896;48.178;11.578;2022-12-29T11:31:42;95566.78;;;16.24;27.47
58092;BME280;43896;48.178;11.578;2022-12-29T11:34:08;95530.00;;;16.14;27.13
58092;BME280;43896;48.178;11.578;2022-12-29T11:36:41;95491.63;;;15.55;27.93
58092;BME280;43896;48.178;11.578;2022-12-29T11:39:23;95513.69;;;17.37;26.08
58092;BME280;43896;48.178;11.578;2022-12-29T11:41:52;95471.38;;;18.77;24.18
58092;BME280;43896;48.178;11.578;2022-12-29T11:44:18;95564.22;;;18.03;24.98
58092;BME280;43896;48.178;11.578;2022-12-29T11:46:46;95564.19;;;16.57;27.03
58092;BME280;43896;48.178;11.578;2022-12-29T11:49:19;95498.91;;;15.40;28.15
58092;BME280;43896;48.178;11.578;2022-12-29T11:51:47;95555.59;;;16.48;27.34
58092;BME280;43896;48.178;11.578;2022-12-29T11:54:19;95474.66;;;18.53;24.43
58092;BME280;43896;48.178;11.578;2022-12-29T11:56:46;95482.06;;;19.39;23.59
58092;BME280;43896;48.178;11.578;2022-12-29T12:02:54;95568.50;;;16.72;27.20
58092;BME280;43896;48.178;11.578;2022-12-29T12:05:03;95527.66;;;15.43;28.11
58092;BME280;43896;48.178;11.578;2022-12-29T12:07:40;95563.53;;;15.45;27.76
58092;BME280;43896;48.178;11.578;2022-12-29T12:10:13;95542.53;;;15.09;28.54
58092;BME280;43896;48.178;11.578;2022-12-29T12:13:05;95554.00;;;15.16;28.58
58092;BME280;43896;48.178;11.578;2022-12-29T12:15:43;95526.75;;;14.94;28.44
58092;BME280;43896;48.178;11.578;2022-12-29T12:18:21;95533.72;;;15.02;28.52
58092;BME280;43896;48.178;11.578;2022-12-29T12:20:54;95512.75;;;14.72;28.98
58092;BME280;43896;48.178;11.578;2022-12-29T12:26:30;95470.38;;;14.00;30.30
58092;BME280;43896;48.178;11.578;2022-12-29T12:29:03;95532.03;;;14.44;29.91
58092;BME280;43896;48.178;11.578;2022-12-29T12:34:15;95504.50;;;14.38;30.99
58092;BME280;43896;48.178;11.578;2022-12-29T12:37:02;95499.41;;;14.15;31.50
58092;BME280;43896;48.178;11.578;2022-12-29T12:39:49;95525.97;;;14.50;31.47
58092;BME280;43896;48.178;11.578;2022-12-29T12:42:29;95513.88;;;14.41;31.66
58092;BME280;43896;48.178;11.578;2022-12-29T13:09:12;95467.06;;;13.40;36.82
58092;BME280;43896;48.178;11.578;2022-12-29T13:14:21;95497.28;;;13.53;36.48
58092;BME280;43896;48.178;11.578;2022-12-29T13:16:53;95516.66;;;13.60;36.76
58092;BME280;43896;48.178;11.578;2022-12-29T13:19:32;95497.50;;;13.36;37.23
58092;BME280;43896;48.178;11.578;2022-12-29T13:22:14;95513.03;;;13.46;37.42
58092;BME280;43896;48.178;11.578;2022-12-29T13:27:54;95517.69;;;13.44;37.54
58092;BME280;43896;48.178;11.578;2022-12-29T13:30:27;95513.78;;;13.55;37.56
58092;BME280;43896;48.178;11.578;2022-12-29T13:33:21;95515.22;;;13.57;37.43
58092;BME280;43896;48.178;11.578;2022-12-29T13:35:57;95505.47;;;13.58;37.86
58092;BME280;43896;48.178;11.578;2022-12-29T13:41:52;95489.84;;;13.41;38.40
58092;BME280;43896;48.178;11.578;2022-12-29T13:44:31;95440.03;;;13.08;38.15
58092;BME280;43896;48.178;11.578;2022-12-29T13:47:00;95498.09;;;13.23;38.54
58092;BME280;43896;48.178;11.578;2022-12-29T13:49:27;95503.50;;;13.15;39.05
58092;BME280;43896;48.178;11.578;2022-12-29T13:51:59;95512.31;;;13.07;38.87
58092;BME280;43896;48.178;11.578;2022-12-29T13:54:47;95525.25;;;13.17;39.47
58092;BME280;43896;48.178;11.578;2022-12-29T14:00:23;95480.81;;;13.06;39.61
58092;BME280;43896;48.178;11.578;2022-12-29T14:03:12;95526.97;;;13.25;39.87
58092;BME280;43896;48.178;11.578;2022-12-29T14:05:45;95510.56;;;13.14;40.50
58092;BME280;43896;48.178;11.578;2022-12-29T14:08:27;95461.69;;;12.74;40.55
58092;BME280;43896;48.178;11.578;2022-12-29T14:10:52;95529.97;;;13.22;41.01
58092;BME280;43896;48.178;11.578;2022-12-29T14:13:22;95528.25;;;13.14;41.47
58092;BME280;43896;48.178;11.578;2022-12-29T14:15:56;95448.66;;;12.57;41.76
58092;BME280;43896;48.178;11.578;2022-12-29T14:18:32;95463.31;;;12.75;41.63
58092;BME280;43896;48.178;11.578;2022-12-29T14:21:04;95501.72;;;12.92;42.15
58092;BME280;43896;48.178;11.578;2022-12-29T14:28:35;95497.09;;;12.80;42.84
58092;BME280;43896;48.178;11.578;2022-12-29T14:31:05;95515.94;;;12.91;43.07
58092;BME280;43896;48.178;11.578;2022-12-29T14:38:58;95496.44;;;12.63;43.62
58092;BME280;43896;48.178;11.578;2022-12-29T14:41:28;95522.22;;;12.90;43.60
58092;BME280;43896;48.178;11.578;2022-12-29T14:46:46;95528.31;;;12.53;44.49
58092;BME280;43896;48.178;11.578;2022-12-29T14:49:18;95499.41;;;12.60;43.68
58092;BME280;43896;48.178;11.578;2022-12-29T14:51:45;95536.41;;;12.74;43.70
58092;BME280;43896;48.178;11.578;2022-12-29T14:57:04;95523.78;;;12.47;44.29
58092;BME280;43896;48.178;11.578;2022-12-29T14:59:32;95508.88;;;12.54;44.29